createdAt,value
2017-12-16T00:00:05.291Z,27.0
2017-12-16T00:01:08.186Z,29.2
2017-12-16T00:02:10.282Z,27.4
2017-12-16T00:03:13.005Z,25.7
2017-12-16T00:04:15.063Z,25.8
2017-12-16T00:05:17.154Z,25.6
2017-12-16T00:06:19.239Z,25.4
2017-12-16T00:07:21.404Z,24.5
2017-12-16T00:08:23.583Z,22.9
2017-12-16T00:09:25.699Z,26.6
2017-12-16T00:10:27.830Z,24.7
2017-12-16T00:11:30.714Z,22.7
2017-12-16T00:12:32.883Z,26.7
2017-12-16T00:13:34.977Z,25.3
2017-12-16T00:14:37.063Z,26.2
2017-12-16T00:15:39.174Z,24.3
2017-12-16T00:16:41.289Z,26.9
2017-12-16T00:17:43.430Z,30.0
2017-12-16T00:18:45.491Z,25.8
2017-12-16T00:19:48.510Z,29.2
2017-12-16T00:20:50.590Z,22.8
2017-12-16T00:21:52.704Z,24.9
2017-12-16T00:22:54.823Z,24.2
2017-12-16T00:23:56.994Z,24.9
2017-12-16T00:24:59.121Z,23.5
2017-12-16T00:26:01.180Z,22.3
2017-12-16T00:27:03.285Z,24.0
2017-12-16T00:28:05.440Z,23.9
2017-12-16T00:29:07.516Z,23.6
2017-12-16T00:30:09.627Z,24.6
2017-12-16T00:31:11.704Z,25.1
2017-12-16T00:32:13.792Z,24.1
2017-12-16T00:33:15.867Z,23.5
2017-12-16T00:34:17.976Z,25.5
2017-12-16T00:35:20.054Z,26.2
2017-12-16T00:36:22.175Z,25.8
2017-12-16T00:37:24.338Z,24.4
2017-12-16T00:38:29.492Z,25.7
2017-12-16T00:40:20.527Z,24.0
2017-12-16T00:41:22.717Z,23.8
2017-12-16T00:42:24.963Z,24.5
2017-12-16T00:43:27.238Z,22.6
2017-12-16T00:44:29.432Z,23.1
2017-12-16T00:45:31.642Z,22.3
2017-12-16T00:46:34.783Z,21.8
2017-12-16T00:47:37.020Z,24.5
2017-12-16T00:48:39.291Z,20.7
2017-12-16T00:49:41.436Z,19.2
2017-12-16T00:50:43.707Z,22.8
2017-12-16T00:51:45.925Z,23.9
2017-12-16T00:52:48.145Z,17.3
2017-12-16T00:53:51.349Z,16.7
2017-12-16T00:54:53.603Z,17.2
2017-12-16T00:55:56.442Z,17.7
2017-12-16T00:56:58.764Z,15.9
2017-12-16T00:58:02.037Z,17.1
2017-12-16T00:59:05.319Z,15.6
2017-12-16T01:00:07.640Z,17.3
2017-12-16T01:01:09.932Z,15.0
2017-12-16T01:02:12.243Z,16.9
2017-12-16T01:03:14.632Z,16.6
2017-12-16T01:04:17.414Z,14.7
2017-12-16T01:05:19.697Z,15.3
2017-12-16T01:06:21.967Z,15.7
2017-12-16T01:07:24.312Z,15.5
2017-12-16T01:08:26.596Z,14.0
2017-12-16T01:09:29.618Z,13.6
2017-12-16T01:10:32.816Z,14.6
2017-12-16T01:11:35.150Z,12.9
2017-12-16T01:12:37.430Z,13.6
2017-12-16T01:13:39.726Z,13.6
2017-12-16T01:14:42.108Z,11.0
2017-12-16T01:15:45.308Z,15.5
2017-12-16T01:17:12.224Z,13.1
2017-12-16T01:18:14.403Z,13.8
2017-12-16T01:19:16.668Z,14.2
2017-12-16T01:20:20.321Z,12.9
2017-12-16T01:21:22.593Z,13.3
2017-12-16T01:22:24.946Z,13.3
2017-12-16T01:23:27.245Z,14.6
2017-12-16T01:24:29.619Z,13.0
2017-12-16T01:25:32.029Z,15.5
2017-12-16T01:26:34.378Z,13.7
2017-12-16T01:27:36.802Z,14.3
2017-12-16T01:28:40.058Z,16.5
2017-12-16T01:29:42.406Z,12.8
2017-12-16T01:30:44.781Z,16.8
2017-12-16T01:31:47.102Z,13.8
2017-12-16T01:32:49.549Z,17.4
2017-12-16T01:33:51.930Z,15.9
2017-12-16T01:34:54.887Z,17.3
2017-12-16T01:35:57.230Z,16.1
2017-12-16T01:36:59.556Z,15.6
2017-12-16T01:38:03.959Z,14.5
2017-12-16T01:39:06.908Z,14.2
2017-12-16T01:40:09.162Z,16.2
2017-12-16T01:41:12.990Z,15.8
2017-12-16T01:42:15.352Z,14.5
2017-12-16T01:43:17.691Z,14.1
2017-12-16T01:44:20.048Z,14.2
2017-12-16T01:45:22.402Z,13.4
2017-12-16T01:46:25.956Z,13.9
2017-12-16T01:47:32.685Z,15.4
2017-12-16T01:48:34.075Z,16.3
2017-12-16T01:49:36.413Z,16.2
2017-12-16T01:50:39.359Z,17.6
2017-12-16T01:51:41.647Z,16.8
2017-12-16T01:52:44.112Z,19.5
2017-12-16T01:53:46.413Z,21.0
2017-12-16T01:54:48.710Z,21.4
2017-12-16T01:55:51.051Z,19.9
2017-12-16T01:56:53.340Z,23.2
2017-12-16T01:57:55.671Z,28.2
2017-12-16T01:58:58.027Z,29.7
2017-12-16T02:00:00.275Z,26.5
2017-12-16T02:01:02.636Z,28.3
2017-12-16T02:02:04.941Z,26.5
2017-12-16T02:03:07.235Z,30.6
2017-12-16T02:04:10.047Z,28.3
2017-12-16T02:05:12.412Z,26.1
2017-12-16T02:06:14.764Z,24.9
2017-12-16T02:07:17.080Z,25.3
2017-12-16T02:08:19.326Z,25.8
2017-12-16T02:09:21.629Z,26.5
2017-12-16T02:10:23.968Z,29.9
2017-12-16T02:11:26.306Z,27.6
2017-12-16T02:12:28.601Z,28.3
2017-12-16T02:13:30.914Z,25.3
2017-12-16T02:14:33.237Z,30.1
2017-12-16T02:15:36.368Z,29.9
2017-12-16T02:16:38.714Z,26.8
2017-12-16T02:17:40.975Z,29.1
2017-12-16T02:18:43.363Z,26.6
2017-12-16T02:19:45.709Z,28.2
2017-12-16T02:20:49.603Z,25.9
2017-12-16T02:21:51.898Z,25.8
2017-12-16T02:22:54.121Z,26.7
2017-12-16T02:23:57.186Z,25.2
2017-12-16T02:24:58.595Z,24.4
2017-12-16T02:26:01.665Z,25.5
2017-12-16T02:27:04.020Z,24.9
2017-12-16T02:28:06.363Z,24.1
2017-12-16T02:29:08.568Z,30.0
2017-12-16T02:30:10.885Z,24.5
2017-12-16T02:31:13.236Z,27.3
2017-12-16T02:32:15.652Z,28.1
2017-12-16T02:33:18.795Z,24.6
2017-12-16T02:34:21.077Z,26.1
2017-12-16T02:35:23.343Z,27.8
2017-12-16T02:36:25.657Z,24.9
2017-12-16T02:37:27.946Z,30.8
2017-12-16T02:38:30.157Z,27.1
2017-12-16T02:40:01.030Z,29.6
2017-12-16T02:41:03.374Z,32.8
2017-12-16T02:42:05.702Z,27.2
2017-12-16T02:43:07.965Z,25.5
2017-12-16T02:44:10.265Z,24.1
2017-12-16T02:45:13.478Z,21.4
2017-12-16T02:46:15.867Z,23.5
2017-12-16T02:47:18.174Z,21.9
2017-12-16T02:48:21.272Z,25.5
2017-12-16T02:49:23.439Z,28.3
2017-12-16T02:50:25.758Z,23.5
2017-12-16T02:51:28.032Z,22.5
2017-12-16T02:52:30.783Z,29.4
2017-12-16T02:53:33.052Z,27.9
2017-12-16T02:54:36.055Z,23.1
2017-12-16T03:01:08.325Z,24.7
2017-12-16T03:02:10.208Z,23.1
2017-12-16T03:03:12.139Z,24.1
2017-12-16T03:04:14.041Z,27.3
2017-12-16T03:05:15.979Z,27.8
2017-12-16T03:06:17.975Z,28.4
2017-12-16T03:07:20.091Z,28.9
2017-12-16T03:08:22.410Z,28.8
2017-12-16T03:09:24.676Z,30.9
2017-12-16T03:10:26.973Z,32.4
2017-12-16T03:11:29.305Z,29.9
2017-12-16T03:12:31.519Z,29.5
2017-12-16T03:13:33.832Z,24.3
2017-12-16T03:14:36.088Z,26.4
2017-12-16T03:15:38.306Z,26.0
2017-12-16T03:16:40.659Z,25.5
2017-12-16T03:17:42.905Z,27.3
2017-12-16T03:18:45.207Z,27.2
2017-12-16T03:19:47.578Z,24.6
2017-12-16T03:20:49.919Z,24.3
2017-12-16T03:21:52.198Z,24.3
2017-12-16T03:22:54.529Z,24.4
2017-12-16T03:23:56.802Z,23.7
2017-12-16T03:24:59.189Z,26.6
2017-12-16T03:26:01.510Z,23.6
2017-12-16T03:27:03.834Z,24.1
2017-12-16T03:28:06.147Z,22.2
2017-12-16T03:29:08.415Z,22.3
2017-12-16T03:30:10.727Z,26.6
2017-12-16T03:33:37.684Z,26.3
2017-12-16T03:34:39.586Z,23.3
2017-12-16T03:35:41.583Z,23.5
2017-12-16T03:36:43.446Z,24.6
2017-12-16T03:37:45.439Z,24.1
2017-12-16T03:38:47.411Z,25.0
2017-12-16T03:39:49.621Z,26.4
2017-12-16T03:40:51.903Z,24.1
2017-12-16T03:41:54.173Z,27.0
2017-12-16T03:42:56.525Z,28.5
2017-12-16T03:43:58.874Z,25.9
2017-12-16T03:45:01.262Z,25.5
2017-12-16T03:46:03.572Z,24.2
2017-12-16T03:47:05.929Z,22.2
2017-12-16T03:48:08.335Z,24.1
2017-12-16T03:49:10.621Z,23.4
2017-12-16T03:50:12.940Z,23.3
2017-12-16T03:51:15.247Z,25.8
2017-12-16T03:52:17.569Z,24.5
2017-12-16T03:53:19.902Z,21.3
2017-12-16T03:54:22.165Z,23.5
2017-12-16T03:55:24.488Z,22.0
2017-12-16T03:56:26.824Z,25.9
2017-12-16T03:57:29.164Z,23.9
2017-12-16T03:58:31.445Z,24.6
2017-12-16T03:59:33.778Z,25.4
2017-12-16T04:00:36.086Z,24.0
2017-12-16T04:01:38.582Z,24.5
2017-12-16T04:02:40.833Z,23.4
2017-12-16T04:03:43.084Z,21.9
2017-12-16T04:04:45.399Z,23.0
2017-12-16T04:05:47.705Z,22.4
2017-12-16T04:06:50.013Z,24.9
2017-12-16T04:07:52.371Z,23.5
2017-12-16T04:08:54.680Z,24.4
2017-12-16T04:09:57.184Z,26.4
2017-12-16T04:10:59.468Z,25.1
2017-12-16T04:12:01.871Z,27.7
2017-12-16T04:13:04.292Z,27.1
2017-12-16T04:14:06.539Z,24.6
2017-12-16T04:15:08.824Z,28.1
2017-12-16T04:16:11.065Z,24.6
2017-12-16T04:17:13.444Z,28.6
2017-12-16T04:18:15.782Z,26.0
2017-12-16T04:19:18.092Z,25.1
2017-12-16T04:20:20.418Z,27.0
2017-12-16T04:21:22.810Z,28.8
2017-12-16T04:22:25.191Z,26.3
2017-12-16T04:23:27.499Z,26.5
2017-12-16T04:24:29.855Z,27.3
2017-12-16T04:25:32.232Z,25.2
2017-12-16T04:26:34.578Z,27.8
2017-12-16T04:27:36.941Z,31.4
2017-12-16T04:28:39.244Z,26.5
2017-12-16T04:29:41.595Z,29.2
2017-12-16T04:30:43.953Z,27.3
2017-12-16T04:31:46.275Z,29.1
2017-12-16T04:32:48.696Z,31.7
2017-12-16T04:33:51.009Z,26.3
2017-12-16T04:34:53.327Z,29.6
2017-12-16T04:35:55.567Z,24.7
2017-12-16T04:36:57.920Z,27.1
2017-12-16T04:38:00.290Z,30.3
2017-12-16T04:39:02.673Z,29.7
2017-12-16T04:40:05.092Z,30.5
2017-12-16T04:41:07.436Z,29.1
2017-12-16T04:42:09.768Z,32.7
2017-12-16T04:43:12.062Z,29.8
2017-12-16T04:44:14.377Z,31.1
2017-12-16T04:45:16.774Z,31.8
2017-12-16T04:46:19.075Z,30.6
2017-12-16T04:47:21.387Z,30.1
2017-12-16T04:48:23.727Z,33.0
2017-12-16T04:49:26.119Z,31.7
2017-12-16T04:50:28.486Z,36.5
2017-12-16T04:51:30.832Z,39.1
2017-12-16T04:52:33.246Z,39.3
2017-12-16T04:53:35.606Z,35.5
2017-12-16T04:54:38.011Z,38.1
2017-12-16T04:55:40.397Z,41.9
2017-12-16T04:56:42.833Z,40.3
2017-12-16T04:57:45.215Z,42.2
2017-12-16T04:58:47.544Z,39.2
2017-12-16T04:59:49.966Z,34.2
2017-12-16T05:00:52.354Z,40.3
2017-12-16T05:01:54.696Z,35.8
2017-12-16T05:02:57.070Z,37.5
2017-12-16T05:03:59.526Z,41.5
2017-12-16T05:05:01.902Z,41.9
2017-12-16T05:06:04.346Z,37.9
2017-12-16T05:07:06.762Z,38.9
2017-12-16T05:08:09.077Z,45.0
2017-12-16T05:09:11.483Z,39.1
2017-12-16T05:10:13.898Z,40.5
2017-12-16T05:11:16.229Z,40.8
2017-12-16T05:12:18.638Z,40.4
2017-12-16T05:13:21.041Z,39.4
2017-12-16T05:14:23.479Z,41.1
2017-12-16T05:15:25.888Z,40.1
2017-12-16T05:16:28.189Z,41.7
2017-12-16T05:17:30.420Z,41.9
2017-12-16T05:18:32.789Z,41.1
2017-12-16T05:19:35.104Z,40.7
2017-12-16T05:20:37.411Z,39.4
2017-12-16T05:21:39.706Z,43.5
2017-12-16T05:22:42.093Z,45.2
2017-12-16T05:23:44.474Z,44.2
2017-12-16T05:24:46.876Z,45.5
2017-12-16T05:25:49.160Z,47.7
2017-12-16T05:26:51.533Z,46.8
2017-12-16T05:27:53.830Z,45.0
2017-12-16T05:28:56.168Z,44.5
2017-12-16T05:29:58.476Z,44.7
2017-12-16T05:31:00.757Z,44.4
2017-12-16T05:32:03.073Z,42.5
2017-12-16T05:33:05.416Z,46.8
2017-12-16T05:34:07.783Z,48.4
2017-12-16T05:35:10.061Z,44.8
2017-12-16T05:36:12.418Z,45.8
2017-12-16T05:37:14.806Z,45.8
2017-12-16T05:38:17.101Z,50.3
2017-12-16T05:39:19.400Z,50.7
2017-12-16T05:40:21.693Z,48.8
2017-12-16T05:41:24.056Z,49.5
2017-12-16T05:42:26.298Z,48.7
2017-12-16T05:43:28.613Z,49.3
2017-12-16T05:44:30.867Z,54.6
2017-12-16T05:45:33.137Z,49.7
2017-12-16T05:46:35.377Z,46.7
2017-12-16T05:47:37.662Z,49.9
2017-12-16T05:48:39.923Z,55.2
2017-12-16T05:49:42.256Z,63.7
2017-12-16T05:50:44.669Z,66.6
2017-12-16T05:51:47.032Z,65.1
2017-12-16T05:52:49.361Z,58.8
2017-12-16T05:53:51.697Z,60.2
2017-12-16T05:54:54.022Z,55.9
2017-12-16T05:55:56.294Z,56.5
2017-12-16T05:56:58.639Z,58.4
2017-12-16T05:58:00.991Z,61.0
2017-12-16T05:59:03.326Z,57.3
2017-12-16T06:00:05.633Z,56.2
2017-12-16T06:01:08.006Z,63.2
2017-12-16T06:02:10.362Z,59.7
2017-12-16T06:03:12.707Z,57.4
2017-12-16T06:04:15.058Z,58.0
2017-12-16T06:05:17.380Z,61.6
2017-12-16T06:06:19.753Z,61.9
2017-12-16T06:07:22.191Z,56.0
2017-12-16T06:08:24.600Z,61.6
2017-12-16T06:09:27.080Z,61.5
2017-12-16T06:10:29.575Z,60.9
2017-12-16T06:11:31.848Z,58.4
2017-12-16T06:12:34.274Z,68.2
2017-12-16T06:13:36.758Z,57.1
2017-12-16T06:14:39.208Z,67.9
2017-12-16T06:15:41.634Z,68.7
2017-12-16T06:16:43.967Z,66.3
2017-12-16T06:17:46.284Z,57.7
2017-12-16T06:18:48.707Z,58.7
2017-12-16T06:19:51.026Z,64.9
2017-12-16T06:20:53.472Z,58.8
2017-12-16T06:21:55.903Z,62.2
2017-12-16T06:22:58.259Z,55.9
2017-12-16T06:24:00.618Z,58.5
2017-12-16T06:25:03.086Z,58.1
2017-12-16T06:26:05.483Z,59.0
2017-12-16T06:27:07.899Z,59.5
2017-12-16T06:28:10.240Z,60.7
2017-12-16T06:29:12.632Z,55.0
2017-12-16T06:30:14.950Z,55.8
2017-12-16T06:31:17.355Z,54.7
2017-12-16T06:32:19.686Z,58.1
2017-12-16T06:33:22.077Z,55.5
2017-12-16T06:34:24.541Z,59.3
2017-12-16T06:35:26.916Z,55.3
2017-12-16T06:36:29.286Z,55.4
2017-12-16T06:37:31.590Z,59.6
2017-12-16T06:38:34.125Z,59.2
2017-12-16T06:39:36.562Z,59.1
2017-12-16T06:40:38.896Z,64.2
2017-12-16T06:41:41.327Z,62.9
2017-12-16T06:42:43.694Z,65.4
2017-12-16T06:43:46.062Z,64.1
2017-12-16T06:44:48.497Z,69.0
2017-12-16T06:45:50.838Z,65.0
2017-12-16T06:46:53.162Z,64.5
2017-12-16T06:47:55.538Z,61.3
2017-12-16T06:48:57.809Z,60.6
2017-12-16T06:50:00.145Z,65.5
2017-12-16T06:51:02.538Z,62.5
2017-12-16T06:52:04.813Z,62.3
2017-12-16T06:53:07.087Z,70.1
2017-12-16T06:54:09.439Z,71.0
2017-12-16T06:55:14.889Z,63.7
2017-12-16T07:01:57.197Z,73.5
2017-12-16T07:02:58.898Z,71.8
2017-12-16T07:04:00.618Z,68.6
2017-12-16T07:05:02.394Z,74.5
2017-12-16T07:06:04.036Z,77.0
2017-12-16T07:07:06.069Z,74.8
2017-12-16T07:08:08.213Z,84.6
2017-12-16T07:09:10.400Z,80.7
2017-12-16T07:10:12.501Z,69.6
2017-12-16T07:11:14.697Z,70.9
2017-12-16T07:12:16.931Z,69.9
2017-12-16T07:13:19.115Z,75.9
2017-12-16T07:14:21.216Z,75.6
2017-12-16T07:15:23.305Z,73.4
2017-12-16T07:16:25.377Z,71.8
2017-12-16T07:17:27.560Z,79.8
2017-12-16T07:18:29.614Z,78.5
2017-12-16T07:19:31.677Z,81.9
2017-12-16T07:20:33.962Z,78.9
2017-12-16T07:21:36.049Z,98.7
2017-12-16T07:22:38.102Z,87.9
2017-12-16T07:23:40.191Z,84.5
2017-12-16T07:24:42.293Z,78.3
2017-12-16T07:25:44.464Z,79.9
2017-12-16T07:26:46.570Z,76.1
2017-12-16T07:27:48.620Z,82.3
2017-12-16T07:28:50.718Z,85.2
2017-12-16T07:29:52.812Z,79.4
2017-12-16T07:30:54.961Z,80.0
2017-12-16T07:31:57.052Z,83.5
2017-12-16T07:32:59.203Z,78.1
2017-12-16T07:34:01.309Z,81.1
2017-12-16T07:35:03.454Z,78.3
2017-12-16T07:36:05.514Z,77.4
2017-12-16T07:37:07.666Z,76.7
2017-12-16T07:38:09.782Z,78.7
2017-12-16T07:39:12.095Z,61.5
2017-12-16T07:40:14.224Z,58.6
2017-12-16T07:41:16.399Z,70.5
2017-12-16T07:42:18.792Z,76.5
2017-12-16T07:43:21.108Z,66.3
2017-12-16T07:44:23.265Z,67.9
2017-12-16T07:45:25.544Z,70.5
2017-12-16T07:46:27.742Z,79.3
2017-12-16T07:47:29.858Z,70.3
2017-12-16T07:48:31.948Z,67.3
2017-12-16T07:49:34.052Z,62.6
2017-12-16T07:50:36.348Z,62.6
2017-12-16T07:51:38.548Z,58.5
2017-12-16T07:52:40.660Z,62.5
2017-12-16T07:53:42.765Z,69.2
2017-12-16T07:54:44.934Z,78.5
2017-12-16T07:55:47.030Z,81.4
2017-12-16T07:56:49.295Z,84.1
2017-12-16T07:57:51.394Z,74.3
2017-12-16T07:58:53.553Z,81.0
2017-12-16T07:59:55.754Z,77.3
2017-12-16T08:00:57.909Z,75.9
2017-12-16T08:02:00.083Z,55.0
2017-12-16T08:03:02.208Z,59.7
2017-12-16T08:04:04.455Z,57.8
2017-12-16T08:05:20.466Z,64.8
2017-12-16T08:06:37.219Z,70.1
2017-12-16T08:07:41.127Z,72.5
2017-12-16T08:08:43.120Z,88.7
2017-12-16T08:09:45.297Z,99.2
2017-12-16T08:10:47.486Z,95.8
2017-12-16T08:11:49.728Z,100.8
2017-12-16T08:12:51.818Z,98.0
2017-12-16T08:14:14.838Z,96.9
2017-12-16T08:15:34.447Z,94.1
2017-12-16T08:16:38.729Z,86.5
2017-12-16T08:17:42.052Z,80.5
2017-12-16T08:18:44.448Z,88.3
2017-12-16T08:19:46.770Z,78.8
2017-12-16T08:20:49.174Z,65.5
2017-12-16T08:21:51.409Z,65.5
2017-12-16T08:22:53.804Z,65.2
2017-12-16T08:23:56.180Z,59.1
2017-12-16T08:24:58.450Z,57.2
2017-12-16T08:26:00.720Z,57.6
2017-12-16T08:27:03.066Z,55.8
2017-12-16T08:28:05.335Z,62.8
2017-12-16T08:29:07.676Z,64.9
2017-12-16T08:30:10.018Z,63.0
2017-12-16T08:31:12.382Z,64.7
2017-12-16T08:32:14.728Z,67.9
2017-12-16T08:33:17.132Z,74.6
2017-12-16T08:34:20.354Z,60.4
2017-12-16T08:35:27.054Z,58.0
2017-12-16T08:36:28.665Z,67.7
2017-12-16T08:37:30.385Z,69.6
2017-12-16T08:38:32.162Z,64.2
2017-12-16T08:39:33.870Z,65.4
2017-12-16T08:40:35.652Z,92.2
2017-12-16T08:41:37.367Z,80.0
2017-12-16T08:42:39.120Z,71.4
2017-12-16T08:43:41.439Z,67.9
2017-12-16T08:44:43.169Z,64.0
2017-12-16T08:45:44.879Z,65.4
2017-12-16T08:46:46.583Z,62.7
2017-12-16T08:47:48.283Z,63.3
2017-12-16T08:48:50.403Z,60.8
2017-12-16T08:49:51.733Z,61.9
2017-12-16T08:50:53.456Z,58.1
2017-12-16T08:51:55.194Z,51.0
2017-12-16T08:52:56.928Z,57.5
2017-12-16T08:53:58.685Z,48.8
2017-12-16T08:55:00.437Z,48.6
2017-12-16T08:56:02.274Z,54.4
2017-12-16T08:57:04.072Z,52.6
2017-12-16T08:58:05.745Z,48.6
2017-12-16T08:59:07.431Z,49.5
2017-12-16T09:00:09.253Z,55.3
2017-12-16T09:01:13.762Z,52.4
2017-12-16T09:02:15.529Z,51.5
2017-12-16T09:03:17.354Z,62.6
2017-12-16T09:04:19.062Z,57.9
2017-12-16T09:05:20.813Z,62.4
2017-12-16T09:06:22.534Z,65.4
2017-12-16T09:07:24.247Z,64.4
2017-12-16T09:08:25.980Z,65.7
2017-12-16T09:09:27.708Z,67.4
2017-12-16T09:10:31.178Z,65.2
2017-12-16T09:11:32.871Z,62.2
2017-12-16T09:12:34.614Z,61.6
2017-12-16T09:13:36.393Z,55.9
2017-12-16T09:14:38.152Z,75.9
2017-12-16T09:15:39.852Z,70.8
2017-12-16T09:16:41.733Z,73.3
2017-12-16T09:17:43.440Z,66.4
2017-12-16T09:18:45.220Z,64.6
2017-12-16T09:19:47.106Z,63.8
2017-12-16T09:20:48.823Z,69.8
2017-12-16T09:21:50.579Z,54.0
2017-12-16T09:22:52.325Z,60.7
2017-12-16T09:23:54.045Z,51.0
2017-12-16T09:24:55.774Z,46.4
2017-12-16T09:25:57.576Z,49.0
2017-12-16T09:26:59.286Z,64.3
2017-12-16T09:28:00.987Z,65.4
2017-12-16T09:29:02.712Z,55.1
2017-12-16T09:30:04.533Z,51.7
2017-12-16T09:31:06.279Z,49.8
2017-12-16T09:32:08.010Z,56.7
2017-12-16T09:33:09.845Z,48.7
2017-12-16T09:34:11.564Z,50.7
2017-12-16T09:35:13.568Z,55.5
2017-12-16T09:36:15.302Z,52.7
2017-12-16T09:37:17.036Z,43.9
2017-12-16T09:38:18.712Z,45.1
2017-12-16T09:39:20.467Z,54.3
2017-12-16T09:40:22.165Z,57.9
2017-12-16T09:41:25.520Z,56.8
2017-12-16T09:42:27.281Z,53.5
2017-12-16T09:43:29.007Z,61.9
2017-12-16T09:44:30.711Z,56.9
2017-12-16T09:45:32.457Z,54.4
2017-12-16T09:46:34.236Z,46.4
2017-12-16T09:47:36.156Z,52.0
2017-12-16T09:48:37.866Z,41.9
2017-12-16T09:49:39.607Z,42.8
2017-12-16T09:50:41.374Z,40.9
2017-12-16T09:51:44.253Z,40.3
2017-12-16T09:52:45.944Z,40.3
2017-12-16T09:53:47.654Z,41.9
2017-12-16T09:54:49.382Z,42.9
2017-12-16T09:55:51.197Z,42.5
2017-12-16T09:56:52.981Z,40.6
2017-12-16T09:57:54.660Z,39.0
2017-12-16T09:58:56.349Z,40.2
2017-12-16T09:59:58.111Z,38.0
2017-12-16T10:01:00.690Z,35.0
2017-12-16T10:02:03.320Z,34.6
2017-12-16T10:03:04.906Z,38.1
2017-12-16T10:04:06.614Z,33.4
2017-12-16T10:05:08.322Z,33.3
2017-12-16T10:06:10.048Z,27.9
2017-12-16T10:07:11.821Z,29.8
2017-12-16T10:08:13.547Z,32.9
2017-12-16T10:09:15.252Z,30.1
2017-12-16T10:10:19.873Z,29.6
2017-12-16T10:11:21.824Z,22.0
2017-12-16T10:12:23.599Z,22.7
2017-12-16T10:13:25.364Z,30.0
2017-12-16T10:14:27.070Z,31.0
2017-12-16T10:15:28.789Z,31.1
2017-12-16T10:16:30.524Z,30.8
2017-12-16T10:17:32.310Z,26.0
2017-12-16T10:18:34.095Z,25.0
2017-12-16T10:19:35.847Z,27.8
2017-12-16T10:20:37.580Z,31.9
2017-12-16T10:21:39.355Z,30.8
2017-12-16T10:22:41.105Z,27.2
2017-12-16T10:23:42.858Z,35.6
2017-12-16T10:24:44.608Z,31.7
2017-12-16T10:25:46.318Z,28.9
2017-12-16T10:26:48.054Z,28.9
2017-12-16T10:27:49.816Z,28.1
2017-12-16T10:28:51.517Z,28.7
2017-12-16T10:29:53.208Z,28.1
2017-12-16T10:30:54.899Z,27.8
2017-12-16T10:31:56.697Z,27.7
2017-12-16T10:32:58.442Z,31.1
2017-12-16T10:34:00.309Z,28.7
2017-12-16T10:35:02.094Z,32.9
2017-12-16T10:36:03.850Z,32.7
2017-12-16T10:37:05.620Z,33.6
2017-12-16T10:38:07.338Z,38.0
2017-12-16T10:39:09.120Z,41.0
2017-12-16T10:40:10.843Z,52.3
2017-12-16T10:41:12.575Z,37.9
2017-12-16T10:42:14.273Z,33.4
2017-12-16T10:43:15.989Z,34.6
2017-12-16T10:44:17.710Z,32.6
2017-12-16T10:45:19.415Z,25.2
2017-12-16T10:46:21.121Z,25.1
2017-12-16T10:47:22.888Z,24.2
2017-12-16T10:48:25.495Z,27.3
2017-12-16T10:49:27.223Z,30.4
2017-12-16T10:50:28.958Z,29.7
2017-12-16T10:51:30.698Z,29.0
2017-12-16T10:52:32.488Z,24.4
2017-12-16T10:53:34.279Z,20.4
2017-12-16T10:54:35.981Z,25.0
2017-12-16T10:55:37.664Z,21.3
2017-12-16T11:01:34.928Z,18.1
2017-12-16T11:02:36.575Z,23.8
2017-12-16T11:03:38.292Z,27.7
2017-12-16T11:04:39.948Z,32.1
2017-12-16T11:05:41.601Z,29.0
2017-12-16T11:06:43.268Z,24.0
2017-12-16T11:07:45.277Z,23.1
2017-12-16T11:08:46.910Z,27.2
2017-12-16T11:09:48.690Z,28.6
2017-12-16T11:10:50.343Z,30.4
2017-12-16T11:11:52.000Z,26.3
2017-12-16T11:12:53.653Z,28.7
2017-12-16T11:13:55.326Z,33.2
2017-12-16T11:14:56.967Z,32.9
2017-12-16T11:15:58.722Z,32.5
2017-12-16T11:17:00.567Z,32.3
2017-12-16T11:18:02.355Z,33.6
2017-12-16T11:19:04.176Z,45.1
2017-12-16T11:20:05.885Z,30.5
2017-12-16T11:21:07.658Z,30.5
2017-12-16T11:22:09.406Z,30.5
2017-12-16T11:23:11.168Z,43.3
2017-12-16T11:24:12.923Z,40.8
2017-12-16T11:25:14.623Z,32.0
2017-12-16T11:26:16.410Z,22.7
2017-12-16T11:27:18.156Z,26.5
2017-12-16T11:28:19.895Z,26.4
2017-12-16T11:29:21.522Z,24.4
2017-12-16T11:30:23.197Z,25.2
2017-12-16T11:31:25.614Z,28.1
2017-12-16T11:32:27.281Z,21.7
2017-12-16T11:33:28.948Z,23.1
2017-12-16T11:34:30.610Z,25.4
2017-12-16T11:35:32.283Z,23.8
2017-12-16T11:36:33.973Z,22.0
2017-12-16T11:37:39.861Z,21.3
2017-12-16T11:38:41.516Z,19.3
2017-12-16T11:39:43.407Z,23.1
2017-12-16T11:40:45.147Z,20.5
2017-12-16T11:41:46.902Z,19.9
2017-12-16T11:42:48.652Z,18.6
2017-12-16T11:43:50.428Z,19.8
2017-12-16T11:44:52.114Z,20.2
2017-12-16T11:45:53.836Z,18.1
2017-12-16T11:46:55.632Z,22.3
2017-12-16T11:47:57.347Z,17.7
2017-12-16T11:48:59.086Z,20.7
2017-12-16T11:50:00.815Z,18.2
2017-12-16T11:51:02.526Z,20.0
2017-12-16T11:52:04.295Z,22.6
2017-12-16T11:53:06.048Z,17.3
2017-12-16T11:54:07.785Z,17.8
2017-12-16T11:55:09.598Z,18.0
2017-12-16T11:56:11.448Z,21.1
2017-12-16T11:57:13.308Z,21.4
2017-12-16T11:58:15.066Z,18.0
2017-12-16T11:59:16.837Z,23.0
2017-12-16T12:00:18.609Z,23.1
2017-12-16T12:01:20.372Z,22.4
2017-12-16T12:02:22.159Z,21.1
2017-12-16T12:03:23.930Z,20.9
2017-12-16T12:04:25.687Z,21.9
2017-12-16T12:05:27.447Z,25.9
2017-12-16T12:06:29.202Z,22.5
2017-12-16T12:07:30.977Z,22.2
2017-12-16T12:08:32.753Z,21.6
2017-12-16T12:09:34.505Z,18.9
2017-12-16T12:10:36.295Z,21.2
2017-12-16T12:11:38.219Z,22.5
2017-12-16T12:12:40.073Z,22.0
2017-12-16T12:13:41.910Z,21.0
2017-12-16T12:14:43.736Z,20.3
2017-12-16T12:15:45.483Z,19.4
2017-12-16T12:16:47.301Z,22.2
2017-12-16T12:17:49.088Z,25.9
2017-12-16T12:18:50.802Z,31.9
2017-12-16T12:19:52.557Z,33.1
2017-12-16T12:20:54.282Z,24.4
2017-12-16T12:21:55.984Z,21.4
2017-12-16T12:22:57.977Z,21.4
2017-12-16T12:23:59.714Z,19.7
2017-12-16T12:25:01.470Z,20.9
2017-12-16T12:26:03.331Z,20.7
2017-12-16T12:27:05.076Z,21.3
2017-12-16T12:28:06.879Z,19.2
2017-12-16T12:29:08.940Z,18.5
2017-12-16T12:30:10.765Z,20.5
2017-12-16T12:31:12.607Z,20.4
2017-12-16T12:32:14.477Z,20.8
2017-12-16T12:33:16.472Z,25.1
2017-12-16T12:34:18.302Z,22.1
2017-12-16T12:35:20.350Z,23.1
2017-12-16T12:36:22.402Z,21.8
2017-12-16T12:37:24.277Z,19.7
2017-12-16T12:38:26.253Z,24.4
2017-12-16T12:39:28.156Z,21.6
2017-12-16T12:40:31.528Z,19.4
2017-12-16T12:41:33.424Z,20.2
2017-12-16T12:42:35.364Z,23.7
2017-12-16T12:43:37.213Z,22.5
2017-12-16T12:44:38.920Z,20.1
2017-12-16T12:45:40.891Z,28.6
2017-12-16T12:46:42.617Z,24.5
2017-12-16T12:47:44.452Z,21.5
2017-12-16T12:48:46.204Z,23.4
2017-12-16T12:49:48.029Z,23.9
2017-12-16T12:50:50.532Z,22.7
2017-12-16T12:51:52.332Z,23.7
2017-12-16T12:52:54.090Z,19.1
2017-12-16T12:53:55.821Z,18.3
2017-12-16T12:54:57.742Z,22.5
2017-12-16T12:55:59.561Z,23.0
2017-12-16T12:57:01.342Z,24.5
2017-12-16T12:58:03.142Z,26.5
2017-12-16T12:59:05.044Z,25.9
2017-12-16T13:00:06.828Z,23.2
2017-12-16T13:01:08.628Z,24.7
2017-12-16T13:02:10.659Z,22.0
2017-12-16T13:03:12.414Z,31.8
2017-12-16T13:04:14.179Z,21.6
2017-12-16T13:05:15.894Z,25.9
2017-12-16T13:06:17.677Z,22.0
2017-12-16T13:07:19.446Z,23.7
2017-12-16T13:08:21.179Z,20.8
2017-12-16T13:09:23.013Z,21.6
2017-12-16T13:10:25.489Z,21.2
2017-12-16T13:11:27.274Z,23.3
2017-12-16T13:12:29.037Z,21.0
2017-12-16T13:13:30.793Z,23.8
2017-12-16T13:14:32.572Z,23.1
2017-12-16T13:15:34.370Z,19.8
2017-12-16T13:16:36.101Z,16.4
2017-12-16T13:17:37.818Z,21.1
2017-12-16T13:18:39.557Z,20.2
2017-12-16T13:19:41.314Z,23.6
2017-12-16T13:20:43.081Z,22.2
2017-12-16T13:21:44.775Z,22.7
2017-12-16T13:22:46.519Z,23.1
2017-12-16T13:23:48.266Z,25.6
2017-12-16T13:24:50.008Z,23.2
2017-12-16T13:25:51.799Z,21.0
2017-12-16T13:26:53.535Z,23.3
2017-12-16T13:27:55.275Z,23.2
2017-12-16T13:28:57.144Z,22.7
2017-12-16T13:29:59.067Z,26.3
2017-12-16T13:31:00.759Z,20.7
2017-12-16T13:32:02.517Z,27.7
2017-12-16T13:33:04.329Z,23.7
2017-12-16T13:34:06.154Z,22.5
2017-12-16T13:35:07.870Z,17.2
2017-12-16T13:36:09.718Z,19.2
2017-12-16T13:37:11.461Z,22.0
2017-12-16T13:38:13.180Z,18.9
2017-12-16T13:39:14.896Z,21.2
2017-12-16T13:40:16.712Z,17.9
2017-12-16T13:41:18.523Z,21.5
2017-12-16T13:42:20.877Z,20.0
2017-12-16T13:43:22.647Z,20.7
2017-12-16T13:44:24.468Z,21.3
2017-12-16T13:45:26.300Z,17.6
2017-12-16T13:46:27.995Z,20.7
2017-12-16T13:47:29.767Z,23.2
2017-12-16T13:48:31.573Z,18.0
2017-12-16T13:49:33.288Z,20.4
2017-12-16T13:50:35.010Z,22.6
2017-12-16T13:51:36.723Z,19.5
2017-12-16T13:52:38.420Z,20.6
2017-12-16T13:53:40.174Z,21.8
2017-12-16T13:54:41.945Z,25.1
2017-12-16T13:55:43.680Z,19.1
2017-12-16T13:56:45.461Z,21.8
2017-12-16T13:57:47.185Z,18.0
2017-12-16T13:58:48.961Z,17.1
2017-12-16T13:59:50.764Z,18.3
2017-12-16T14:00:52.528Z,21.4
2017-12-16T14:01:54.263Z,17.3
2017-12-16T14:02:56.055Z,17.9
2017-12-16T14:03:59.238Z,16.9
2017-12-16T14:05:01.091Z,16.5
2017-12-16T14:06:02.774Z,13.2
2017-12-16T14:07:04.505Z,20.0
2017-12-16T14:08:06.184Z,15.3